Rockford, IL

5:58 AM CDT on August 30, 2014 (GMT -0500)
Cunningham and Westfield | Change Station
CLOSE
Current Station
Personal Weather Station
Location: Winnebago, IL
Elevation: 850 ft
Nearby Weather Stations

Elev 850 ft 42.26 °N, 89.23 °W | Updated 1 second ago

Overcast
Overcast
70.5 °F
Feels Like 70.5 °F
N
2.0
Wind Variable Wind from NW
Gusts 4.0 mph

Today
High -- | Low -- °F
--% Chance of Precip.
Yesterday
High -- | Low -- °F
Precip. -- in
6:19 AM 7:33 PM
Waxing Crescent, 21% visible
Pressure 29.81 in
Visibility 6.0 miles
Clouds Scattered Clouds 1400 ft
Scattered Clouds 9000 ft
Mostly Cloudy 11000 ft
Dew Point 67 °F
Humidity 89%
Rainfall 0.00 in
Snow Depth Not available.
UV 0.0 out of 12
Pollen 4.20 out of 12
Ozone Good
PM2.5 Moderate
Flu Activity Not available.
METAR KRFD 301054Z 20007KT 6SM RA BR SCT014 SCT090 BKN110 21/20 A2982 RMK AO2 RAB34 PRESFR SLP094 P0002 T02110200 $

More Conditions Fewer Conditions

Pressure 29.81 in
Visibility 6.0 miles
Clouds Scattered Clouds 1400 ft
Scattered Clouds 9000 ft
Mostly Cloudy 11000 ft
Dew Point 67 °F
Humidity 89%
Rainfall 0.00 in
Snow Depth Not available.
UV 0.0 out of 12
Pollen 4.20 out of 12
Ozone Good
PM2.5 Moderate
Flu Activity Not available.
METAR KRFD 301054Z 20007KT 6SM RA BR SCT014 SCT090 BKN110 21/20 A2982 RMK AO2 RAB34 PRESFR SLP094 P0002 T02110200 $

More Conditions Fewer Conditions

10-Day Weather Forecast

Almanac

Astronomy

Aug. 30, 2014 Rise Set
Actual Time 6:19 AM CDT 7:33 PM CDT
Civil Twilight 5:50 AM CDT 8:02 PM CDT
Nautical Twilight 5:15 AM CDT 8:37 PM CDT
Astronomical Twilight 4:39 AM CDT 9:13 PM CDT
Moon 11:13 AM CDT 10:01 PM CDT
Length of Visible Light 14h 12m
Length of Day
13h 14m
Tomorrow will be 2m 43s shorter.
Waxing Crescent, 21% of the Moon is Illuminated
Today
Waxing Crescent
Sep 2
First Quarter
Sep 8
Full
Sep 15
Last Quarter
Sep 24
New

Today's Extremes

State Highs State Lows

Community

WunderPhotos

Upload Photos

1,748,482 photos uploaded!

WunderBlogs® & News

By Dr. Jeff Masters
Director of Meteorology, Weather Underground
By Kari Strenfel
Meteorologist, Weather Underground
By Christopher C. Burt
Weather Historian, Weather Underground
August 30, 2014
August 29, 2014
August 29, 2014

Nearby

Air Quality

  Air Quality AQ Index Pollutant
Yesterday Moderate
PM2.5
Yesterday Good
OZONE
Current Moderate
PM2.5
Current Good
OZONE
Saturday Good
PM2.5
Sunday Good
PM2.5
Monday Moderate
PM2.5
Tuesday Good
PM2.5

Snow Depth

Station Depth Elevation
No new snow has been reported.

Earthquake Activity

City Distance Mag. Time & Date
No recent earthquake activity has been reported nearby.
Minimum magnitude displayed is 2.5.

Coastal Water Temperatures

Place Temperature
No Stations Reporting

Nearby Weather Stations